< < Back
Terminal Aerodrome Forecast


Current Version              Previous Versions:   1  2  3  4  5  6  7  8  9  

Terminal Aerodrome Forecast

947
FTUS42 KFFC 210500
TAFFTY
TAF
KFTY 210532Z 2106/2206 VRB03KT P6SM SCT150 BKN250
     FM210900 00000KT 3SM BR SCT008
     FM211400 30004KT P6SM SCT025
     FM211700 30006KT P6SM SCT045
     FM220200 31002KT P6SM SKC=



Latest METAR

083
SAUS70 KWBC 211000 RRE
MTRFTY
METAR KFTY 210953Z 00000KT 10SM CLR 21/19 A3010 RMK AO2 SLP185
T02060194


USA.gov is the U.S. government's official web portal to all federal, state and local government web resources and services.